sensor_id;sensor_type;location;lat;lon;timestamp;P1;durP1;ratioP1;P2;durP2;ratioP2
64959;SDS011;51487;52.266;10.542;2023-05-10T00:01:23;5.57;;;3.15;;
64959;SDS011;51487;52.266;10.542;2023-05-10T00:03:49;4.50;;;3.30;;
64959;SDS011;51487;52.266;10.542;2023-05-10T00:06:14;5.30;;;3.03;;
64959;SDS011;51487;52.266;10.542;2023-05-10T00:08:40;5.63;;;3.20;;
64959;SDS011;51487;52.266;10.542;2023-05-10T00:11:06;4.75;;;3.17;;
64959;SDS011;51487;52.266;10.542;2023-05-10T00:13:31;4.95;;;3.10;;
64959;SDS011;51487;52.266;10.542;2023-05-10T00:15:57;6.72;;;3.40;;
64959;SDS011;51487;52.266;10.542;2023-05-10T00:18:23;5.75;;;3.30;;
64959;SDS011;51487;52.266;10.542;2023-05-10T00:20:48;6.38;;;3.53;;
64959;SDS011;51487;52.266;10.542;2023-05-10T00:23:14;7.50;;;3.40;;
64959;SDS011;51487;52.266;10.542;2023-05-10T00:25:40;5.75;;;3.20;;
64959;SDS011;51487;52.266;10.542;2023-05-10T00:28:05;6.10;;;3.70;;
64959;SDS011;51487;52.266;10.542;2023-05-10T00:30:31;4.53;;;3.28;;
64959;SDS011;51487;52.266;10.542;2023-05-10T00:32:56;5.25;;;3.20;;
64959;SDS011;51487;52.266;10.542;2023-05-10T00:35:22;6.55;;;3.85;;
64959;SDS011;51487;52.266;10.542;2023-05-10T00:37:48;5.28;;;3.15;;
64959;SDS011;51487;52.266;10.542;2023-05-10T00:40:14;4.47;;;3.03;;
64959;SDS011;51487;52.266;10.542;2023-05-10T00:42:39;4.88;;;3.42;;
64959;SDS011;51487;52.266;10.542;2023-05-10T00:45:05;5.32;;;3.83;;
64959;SDS011;51487;52.266;10.542;2023-05-10T00:47:31;4.50;;;3.30;;
64959;SDS011;51487;52.266;10.542;2023-05-10T00:49:58;5.57;;;3.35;;
64959;SDS011;51487;52.266;10.542;2023-05-10T00:52:25;4.53;;;3.20;;
64959;SDS011;51487;52.266;10.542;2023-05-10T00:54:53;4.43;;;2.90;;
64959;SDS011;51487;52.266;10.542;2023-05-10T00:57:19;5.80;;;3.38;;
64959;SDS011;51487;52.266;10.542;2023-05-10T00:59:46;6.15;;;3.20;;
64959;SDS011;51487;52.266;10.542;2023-05-10T01:02:13;4.82;;;3.38;;
64959;SDS011;51487;52.266;10.542;2023-05-10T01:04:39;4.18;;;3.22;;
64959;SDS011;51487;52.266;10.542;2023-05-10T01:07:05;7.35;;;3.40;;
64959;SDS011;51487;52.266;10.542;2023-05-10T01:09:31;5.47;;;3.15;;
64959;SDS011;51487;52.266;10.542;2023-05-10T01:11:58;3.92;;;3.22;;
64959;SDS011;51487;52.266;10.542;2023-05-10T01:14:24;4.47;;;3.00;;
64959;SDS011;51487;52.266;10.542;2023-05-10T01:16:51;4.55;;;3.47;;
64959;SDS011;51487;52.266;10.542;2023-05-10T01:36:03;4.88;;;3.63;;
64959;SDS011;51487;52.266;10.542;2023-05-10T01:38:41;4.23;;;3.17;;
64959;SDS011;51487;52.266;10.542;2023-05-10T01:41:18;6.10;;;3.03;;
64959;SDS011;51487;52.266;10.542;2023-05-10T01:47:17;7.55;;;3.42;;
64959;SDS011;51487;52.266;10.542;2023-05-10T01:50:15;5.28;;;3.47;;
64959;SDS011;51487;52.266;10.542;2023-05-10T01:52:49;3.88;;;2.95;;
64959;SDS011;51487;52.266;10.542;2023-05-10T01:55:20;4.70;;;3.20;;
64959;SDS011;51487;52.266;10.542;2023-05-10T01:57:51;6.57;;;3.28;;
64959;SDS011;51487;52.266;10.542;2023-05-10T02:00:34;4.25;;;3.28;;
64959;SDS011;51487;52.266;10.542;2023-05-10T02:03:01;6.70;;;3.22;;
64959;SDS011;51487;52.266;10.542;2023-05-10T02:08:01;3.47;;;2.90;;
64959;SDS011;51487;52.266;10.542;2023-05-10T02:10:31;5.30;;;3.28;;
64959;SDS011;51487;52.266;10.542;2023-05-10T02:12:59;4.20;;;3.08;;
64959;SDS011;51487;52.266;10.542;2023-05-10T02:15:28;4.25;;;3.33;;
64959;SDS011;51487;52.266;10.542;2023-05-10T02:17:55;4.18;;;3.20;;
64959;SDS011;51487;52.266;10.542;2023-05-10T02:20:23;8.88;;;3.58;;
64959;SDS011;51487;52.266;10.542;2023-05-10T02:22:51;4.25;;;3.30;;
64959;SDS011;51487;52.266;10.542;2023-05-10T02:25:20;4.25;;;3.28;;
64959;SDS011;51487;52.266;10.542;2023-05-10T02:27:48;6.57;;;3.50;;
64959;SDS011;51487;52.266;10.542;2023-05-10T02:30:16;4.97;;;3.45;;
64959;SDS011;51487;52.266;10.542;2023-05-10T02:32:44;5.05;;;3.55;;
64959;SDS011;51487;52.266;10.542;2023-05-10T02:35:11;6.75;;;3.17;;
64959;SDS011;51487;52.266;10.542;2023-05-10T02:37:38;4.32;;;3.28;;
64959;SDS011;51487;52.266;10.542;2023-05-10T02:40:05;5.20;;;3.33;;
64959;SDS011;51487;52.266;10.542;2023-05-10T02:42:35;5.25;;;3.67;;
64959;SDS011;51487;52.266;10.542;2023-05-10T02:45:04;7.57;;;3.38;;
64959;SDS011;51487;52.266;10.542;2023-05-10T02:47:36;5.28;;;3.22;;
64959;SDS011;51487;52.266;10.542;2023-05-10T02:50:02;5.20;;;3.42;;
64959;SDS011;51487;52.266;10.542;2023-05-10T02:52:30;4.97;;;3.47;;
64959;SDS011;51487;52.266;10.542;2023-05-10T02:55:05;4.25;;;3.47;;
64959;SDS011;51487;52.266;10.542;2023-05-10T02:57:34;4.68;;;3.70;;
64959;SDS011;51487;52.266;10.542;2023-05-10T03:00:03;7.07;;;3.63;;
64959;SDS011;51487;52.266;10.542;2023-05-10T03:02:30;7.28;;;3.40;;
64959;SDS011;51487;52.266;10.542;2023-05-10T03:04:56;5.70;;;3.30;;
64959;SDS011;51487;52.266;10.542;2023-05-10T03:07:21;4.70;;;3.50;;
64959;SDS011;51487;52.266;10.542;2023-05-10T03:09:48;5.75;;;3.53;;
64959;SDS011;51487;52.266;10.542;2023-05-10T03:15:15;6.20;;;3.42;;
64959;SDS011;51487;52.266;10.542;2023-05-10T03:20:48;4.55;;;3.40;;
64959;SDS011;51487;52.266;10.542;2023-05-10T03:23:21;5.53;;;3.60;;
64959;SDS011;51487;52.266;10.542;2023-05-10T03:28:18;6.80;;;3.60;;
64959;SDS011;51487;52.266;10.542;2023-05-10T03:30:46;5.35;;;3.65;;
64959;SDS011;51487;52.266;10.542;2023-05-10T03:33:12;4.75;;;3.60;;
64959;SDS011;51487;52.266;10.542;2023-05-10T03:35:39;6.82;;;3.58;;
64959;SDS011;51487;52.266;10.542;2023-05-10T03:38:04;3.90;;;3.30;;
64959;SDS011;51487;52.266;10.542;2023-05-10T03:40:30;5.80;;;4.05;;
64959;SDS011;51487;52.266;10.542;2023-05-10T03:42:57;6.35;;;3.80;;
64959;SDS011;51487;52.266;10.542;2023-05-10T03:45:23;7.38;;;3.50;;
64959;SDS011;51487;52.266;10.542;2023-05-10T03:47:49;5.68;;;3.67;;
64959;SDS011;51487;52.266;10.542;2023-05-10T03:50:15;6.25;;;3.80;;
64959;SDS011;51487;52.266;10.542;2023-05-10T03:52:40;6.32;;;4.20;;
64959;SDS011;51487;52.266;10.542;2023-05-10T03:55:06;5.22;;;4.20;;
64959;SDS011;51487;52.266;10.542;2023-05-10T03:57:32;7.43;;;3.40;;
64959;SDS011;51487;52.266;10.542;2023-05-10T03:59:58;6.47;;;3.60;;
64959;SDS011;51487;52.266;10.542;2023-05-10T04:02:24;5.78;;;4.25;;
64959;SDS011;51487;52.266;10.542;2023-05-10T04:04:50;5.68;;;3.97;;
64959;SDS011;51487;52.266;10.542;2023-05-10T04:07:15;7.28;;;3.88;;
64959;SDS011;51487;52.266;10.542;2023-05-10T04:09:41;6.47;;;4.05;;
64959;SDS011;51487;52.266;10.542;2023-05-10T04:12:07;7.60;;;4.00;;
64959;SDS011;51487;52.266;10.542;2023-05-10T04:14:32;6.88;;;3.78;;
64959;SDS011;51487;52.266;10.542;2023-05-10T04:16:58;4.18;;;3.50;;
64959;SDS011;51487;52.266;10.542;2023-05-10T04:19:23;8.45;;;4.15;;
64959;SDS011;51487;52.266;10.542;2023-05-10T04:21:49;5.10;;;3.88;;
64959;SDS011;51487;52.266;10.542;2023-05-10T04:24:14;4.57;;;3.97;;
64959;SDS011;51487;52.266;10.542;2023-05-10T04:26:40;6.20;;;3.88;;
64959;SDS011;51487;52.266;10.542;2023-05-10T04:29:06;6.53;;;4.30;;
64959;SDS011;51487;52.266;10.542;2023-05-10T04:31:31;6.43;;;3.65;;
64959;SDS011;51487;52.266;10.542;2023-05-10T04:33:57;7.63;;;4.07;;
64959;SDS011;51487;52.266;10.542;2023-05-10T04:36:23;8.77;;;4.20;;
64959;SDS011;51487;52.266;10.542;2023-05-10T04:38:48;5.22;;;4.20;;
64959;SDS011;51487;52.266;10.542;2023-05-10T04:41:14;4.63;;;3.85;;
64959;SDS011;51487;52.266;10.542;2023-05-10T04:43:39;5.85;;;4.10;;
64959;SDS011;51487;52.266;10.542;2023-05-10T04:46:05;6.47;;;4.15;;
64959;SDS011;51487;52.266;10.542;2023-05-10T04:48:32;5.25;;;4.20;;
64959;SDS011;51487;52.266;10.542;2023-05-10T04:50:57;10.32;;;4.30;;
64959;SDS011;51487;52.266;10.542;2023-05-10T04:53:23;6.75;;;3.80;;
64959;SDS011;51487;52.266;10.542;2023-05-10T04:55:49;8.20;;;4.05;;
64959;SDS011;51487;52.266;10.542;2023-05-10T04:58:14;5.55;;;3.78;;
64959;SDS011;51487;52.266;10.542;2023-05-10T05:00:40;6.65;;;3.90;;
64959;SDS011;51487;52.266;10.542;2023-05-10T05:03:05;6.10;;;4.32;;
64959;SDS011;51487;52.266;10.542;2023-05-10T05:05:31;4.95;;;4.10;;
64959;SDS011;51487;52.266;10.542;2023-05-10T05:07:56;7.88;;;4.03;;
64959;SDS011;51487;52.266;10.542;2023-05-10T05:10:22;6.57;;;4.10;;
64959;SDS011;51487;52.266;10.542;2023-05-10T05:12:47;7.05;;;4.32;;
64959;SDS011;51487;52.266;10.542;2023-05-10T05:15:13;6.03;;;3.83;;
64959;SDS011;51487;52.266;10.542;2023-05-10T05:17:40;5.30;;;3.92;;
64959;SDS011;51487;52.266;10.542;2023-05-10T05:20:05;5.85;;;4.28;;
64959;SDS011;51487;52.266;10.542;2023-05-10T05:22:32;7.80;;;4.22;;
64959;SDS011;51487;52.266;10.542;2023-05-10T05:24:58;5.65;;;4.13;;
64959;SDS011;51487;52.266;10.542;2023-05-10T05:27:23;7.72;;;4.07;;
64959;SDS011;51487;52.266;10.542;2023-05-10T05:29:54;6.18;;;4.43;;
64959;SDS011;51487;52.266;10.542;2023-05-10T05:32:22;6.13;;;4.20;;
64959;SDS011;51487;52.266;10.542;2023-05-10T05:34:49;7.03;;;4.32;;
64959;SDS011;51487;52.266;10.542;2023-05-10T05:37:15;7.10;;;4.30;;
64959;SDS011;51487;52.266;10.542;2023-05-10T05:39:46;6.93;;;4.55;;
64959;SDS011;51487;52.266;10.542;2023-05-10T05:42:12;7.43;;;4.60;;
64959;SDS011;51487;52.266;10.542;2023-05-10T05:44:38;7.22;;;4.53;;
64959;SDS011;51487;52.266;10.542;2023-05-10T05:47:04;5.22;;;4.28;;
64959;SDS011;51487;52.266;10.542;2023-05-10T05:49:31;8.52;;;4.47;;
64959;SDS011;51487;52.266;10.542;2023-05-10T05:52:01;6.50;;;4.72;;
64959;SDS011;51487;52.266;10.542;2023-05-10T05:54:28;9.20;;;4.22;;
64959;SDS011;51487;52.266;10.542;2023-05-10T05:56:55;8.30;;;4.57;;
64959;SDS011;51487;52.266;10.542;2023-05-10T05:59:22;8.43;;;4.18;;
64959;SDS011;51487;52.266;10.542;2023-05-10T06:01:47;7.30;;;4.85;;
64959;SDS011;51487;52.266;10.542;2023-05-10T06:04:13;6.03;;;4.65;;
64959;SDS011;51487;52.266;10.542;2023-05-10T06:06:39;9.27;;;4.38;;
64959;SDS011;51487;52.266;10.542;2023-05-10T06:09:05;6.10;;;4.50;;
64959;SDS011;51487;52.266;10.542;2023-05-10T06:11:31;8.18;;;5.00;;
64959;SDS011;51487;52.266;10.542;2023-05-10T06:13:59;5.07;;;4.30;;
64959;SDS011;51487;52.266;10.542;2023-05-10T06:16:26;7.93;;;4.68;;
64959;SDS011;51487;52.266;10.542;2023-05-10T06:18:53;6.07;;;4.78;;
64959;SDS011;51487;52.266;10.542;2023-05-10T06:21:18;5.07;;;4.25;;
64959;SDS011;51487;52.266;10.542;2023-05-10T06:23:44;6.30;;;4.53;;
64959;SDS011;51487;52.266;10.542;2023-05-10T06:26:10;4.85;;;4.03;;
64959;SDS011;51487;52.266;10.542;2023-05-10T06:28:36;7.50;;;4.93;;
64959;SDS011;51487;52.266;10.542;2023-05-10T06:31:04;7.10;;;4.13;;
64959;SDS011;51487;52.266;10.542;2023-05-10T06:33:30;8.75;;;4.13;;
64959;SDS011;51487;52.266;10.542;2023-05-10T06:35:56;8.93;;;4.53;;
64959;SDS011;51487;52.266;10.542;2023-05-10T06:38:22;6.72;;;4.53;;
64959;SDS011;51487;52.266;10.542;2023-05-10T06:40:47;6.78;;;4.63;;
64959;SDS011;51487;52.266;10.542;2023-05-10T06:43:13;6.85;;;4.88;;
64959;SDS011;51487;52.266;10.542;2023-05-10T06:45:39;5.72;;;4.35;;
64959;SDS011;51487;52.266;10.542;2023-05-10T06:48:05;6.72;;;4.20;;
64959;SDS011;51487;52.266;10.542;2023-05-10T06:50:31;9.13;;;4.40;;
64959;SDS011;51487;52.266;10.542;2023-05-10T06:52:58;8.38;;;4.70;;
64959;SDS011;51487;52.266;10.542;2023-05-10T06:55:24;7.25;;;4.53;;
64959;SDS011;51487;52.266;10.542;2023-05-10T06:57:50;6.45;;;4.63;;
64959;SDS011;51487;52.266;10.542;2023-05-10T07:00:16;10.55;;;4.97;;
64959;SDS011;51487;52.266;10.542;2023-05-10T07:02:43;11.25;;;5.45;;
64959;SDS011;51487;52.266;10.542;2023-05-10T07:05:09;7.32;;;5.20;;
64959;SDS011;51487;52.266;10.542;2023-05-10T07:07:35;7.72;;;5.03;;
64959;SDS011;51487;52.266;10.542;2023-05-10T07:10:01;6.57;;;5.25;;
64959;SDS011;51487;52.266;10.542;2023-05-10T07:12:27;8.60;;;5.75;;
64959;SDS011;51487;52.266;10.542;2023-05-10T07:14:53;7.20;;;5.63;;
64959;SDS011;51487;52.266;10.542;2023-05-10T07:17:18;8.07;;;5.65;;
64959;SDS011;51487;52.266;10.542;2023-05-10T07:19:44;7.28;;;5.80;;
64959;SDS011;51487;52.266;10.542;2023-05-10T07:22:09;7.75;;;5.65;;
64959;SDS011;51487;52.266;10.542;2023-05-10T07:24:35;7.85;;;5.38;;
64959;SDS011;51487;52.266;10.542;2023-05-10T07:27:01;6.65;;;5.45;;
64959;SDS011;51487;52.266;10.542;2023-05-10T07:29:26;9.05;;;5.97;;
64959;SDS011;51487;52.266;10.542;2023-05-10T07:31:52;6.82;;;5.95;;
64959;SDS011;51487;52.266;10.542;2023-05-10T07:34:18;8.93;;;5.93;;
64959;SDS011;51487;52.266;10.542;2023-05-10T07:36:43;7.05;;;5.90;;
64959;SDS011;51487;52.266;10.542;2023-05-10T07:39:09;7.05;;;5.93;;
64959;SDS011;51487;52.266;10.542;2023-05-10T07:41:34;10.75;;;6.05;;
64959;SDS011;51487;52.266;10.542;2023-05-10T07:44:02;10.55;;;5.88;;
64959;SDS011;51487;52.266;10.542;2023-05-10T07:46:28;8.02;;;5.90;;
64959;SDS011;51487;52.266;10.542;2023-05-10T07:48:54;10.35;;;5.70;;
64959;SDS011;51487;52.266;10.542;2023-05-10T07:51:20;7.00;;;5.80;;
64959;SDS011;51487;52.266;10.542;2023-05-10T07:53:46;12.88;;;5.97;;
64959;SDS011;51487;52.266;10.542;2023-05-10T07:56:28;6.45;;;5.75;;
64959;SDS011;51487;52.266;10.542;2023-05-10T07:58:56;7.90;;;5.95;;
64959;SDS011;51487;52.266;10.542;2023-05-10T08:01:27;9.70;;;6.50;;
64959;SDS011;51487;52.266;10.542;2023-05-10T08:03:57;8.00;;;6.25;;
64959;SDS011;51487;52.266;10.542;2023-05-10T08:06:22;7.30;;;5.75;;
64959;SDS011;51487;52.266;10.542;2023-05-10T08:08:48;9.02;;;6.15;;
64959;SDS011;51487;52.266;10.542;2023-05-10T08:11:18;10.70;;;6.32;;
64959;SDS011;51487;52.266;10.542;2023-05-10T08:13:45;7.68;;;5.93;;
64959;SDS011;51487;52.266;10.542;2023-05-10T08:16:13;11.02;;;6.53;;
64959;SDS011;51487;52.266;10.542;2023-05-10T08:18:39;9.32;;;6.50;;
64959;SDS011;51487;52.266;10.542;2023-05-10T08:21:05;8.73;;;6.32;;
64959;SDS011;51487;52.266;10.542;2023-05-10T08:23:31;9.07;;;6.72;;
64959;SDS011;51487;52.266;10.542;2023-05-10T08:25:56;8.77;;;6.82;;
64959;SDS011;51487;52.266;10.542;2023-05-10T08:28:22;10.57;;;6.32;;
64959;SDS011;51487;52.266;10.542;2023-05-10T08:30:49;6.80;;;6.10;;
64959;SDS011;51487;52.266;10.542;2023-05-10T08:33:15;10.70;;;6.63;;
64959;SDS011;51487;52.266;10.542;2023-05-10T08:35:40;8.23;;;6.20;;
64959;SDS011;51487;52.266;10.542;2023-05-10T08:38:06;11.90;;;7.10;;
64959;SDS011;51487;52.266;10.542;2023-05-10T08:40:32;8.30;;;5.93;;
64959;SDS011;51487;52.266;10.542;2023-05-10T08:45:32;8.10;;;6.60;;
64959;SDS011;51487;52.266;10.542;2023-05-10T08:48:03;7.45;;;5.97;;
64959;SDS011;51487;52.266;10.542;2023-05-10T08:50:32;7.13;;;6.07;;
64959;SDS011;51487;52.266;10.542;2023-05-10T08:53:03;6.95;;;6.20;;
64959;SDS011;51487;52.266;10.542;2023-05-10T08:55:34;9.63;;;6.93;;
64959;SDS011;51487;52.266;10.542;2023-05-10T08:58:01;8.82;;;6.68;;
64959;SDS011;51487;52.266;10.542;2023-05-10T09:00:28;7.05;;;6.35;;
64959;SDS011;51487;52.266;10.542;2023-05-10T09:02:54;7.90;;;6.15;;
64959;SDS011;51487;52.266;10.542;2023-05-10T09:05:21;9.55;;;6.63;;
64959;SDS011;51487;52.266;10.542;2023-05-10T09:07:47;9.38;;;6.40;;
64959;SDS011;51487;52.266;10.542;2023-05-10T09:10:15;7.60;;;6.30;;
64959;SDS011;51487;52.266;10.542;2023-05-10T09:12:42;7.32;;;6.07;;
64959;SDS011;51487;52.266;10.542;2023-05-10T09:15:12;9.70;;;6.65;;
64959;SDS011;51487;52.266;10.542;2023-05-10T09:17:41;11.98;;;6.88;;
64959;SDS011;51487;52.266;10.542;2023-05-10T09:20:09;8.02;;;6.80;;
64959;SDS011;51487;52.266;10.542;2023-05-10T09:22:34;8.82;;;6.63;;
64959;SDS011;51487;52.266;10.542;2023-05-10T09:27:38;9.82;;;7.40;;
64959;SDS011;51487;52.266;10.542;2023-05-10T09:30:06;9.02;;;6.82;;
64959;SDS011;51487;52.266;10.542;2023-05-10T09:32:37;8.60;;;7.30;;
64959;SDS011;51487;52.266;10.542;2023-05-10T09:35:07;9.30;;;7.40;;
64959;SDS011;51487;52.266;10.542;2023-05-10T09:37:34;9.48;;;7.35;;
64959;SDS011;51487;52.266;10.542;2023-05-10T09:40:00;7.78;;;6.60;;
64959;SDS011;51487;52.266;10.542;2023-05-10T09:42:25;8.52;;;6.97;;
64959;SDS011;51487;52.266;10.542;2023-05-10T09:44:51;9.20;;;7.28;;
64959;SDS011;51487;52.266;10.542;2023-05-10T09:47:17;10.88;;;7.43;;
64959;SDS011;51487;52.266;10.542;2023-05-10T09:49:52;8.95;;;6.97;;
64959;SDS011;51487;52.266;10.542;2023-05-10T09:52:20;9.77;;;7.35;;
64959;SDS011;51487;52.266;10.542;2023-05-10T09:54:52;8.35;;;6.55;;
64959;SDS011;51487;52.266;10.542;2023-05-10T09:57:22;6.65;;;5.60;;
64959;SDS011;51487;52.266;10.542;2023-05-10T09:59:49;7.03;;;5.10;;
64959;SDS011;51487;52.266;10.542;2023-05-10T10:02:16;5.55;;;4.22;;
64959;SDS011;51487;52.266;10.542;2023-05-10T10:04:42;7.30;;;4.18;;
64959;SDS011;51487;52.266;10.542;2023-05-10T10:07:08;4.05;;;2.90;;
64959;SDS011;51487;52.266;10.542;2023-05-10T10:09:34;3.40;;;2.50;;
64959;SDS011;51487;52.266;10.542;2023-05-10T10:12:03;4.07;;;2.47;;
64959;SDS011;51487;52.266;10.542;2023-05-10T10:14:29;3.25;;;2.40;;
64959;SDS011;51487;52.266;10.542;2023-05-10T10:16:55;2.85;;;2.10;;
64959;SDS011;51487;52.266;10.542;2023-05-10T10:19:21;2.17;;;1.98;;
64959;SDS011;51487;52.266;10.542;2023-05-10T10:21:47;2.28;;;1.70;;
64959;SDS011;51487;52.266;10.542;2023-05-10T10:24:14;2.25;;;1.48;;
64959;SDS011;51487;52.266;10.542;2023-05-10T10:26:40;2.30;;;1.73;;
64959;SDS011;51487;52.266;10.542;2023-05-10T10:32:21;2.42;;;1.50;;
64959;SDS011;51487;52.266;10.542;2023-05-10T10:34:58;1.65;;;1.27;;
64959;SDS011;51487;52.266;10.542;2023-05-10T10:37:33;1.25;;;1.15;;
64959;SDS011;51487;52.266;10.542;2023-05-10T10:40:42;1.30;;;1.20;;
64959;SDS011;51487;52.266;10.542;2023-05-10T10:46:09;1.15;;;1.05;;
64959;SDS011;51487;52.266;10.542;2023-05-10T10:48:39;1.15;;;1.05;;
64959;SDS011;51487;52.266;10.542;2023-05-10T10:51:38;5.03;;;2.60;;
64959;SDS011;51487;52.266;10.542;2023-05-10T10:54:11;2.22;;;1.10;;
64959;SDS011;51487;52.266;10.542;2023-05-10T10:56:37;2.15;;;1.23;;
64959;SDS011;51487;52.266;10.542;2023-05-10T10:59:03;2.00;;;1.25;;
64959;SDS011;51487;52.266;10.542;2023-05-10T11:01:34;1.50;;;1.35;;
64959;SDS011;51487;52.266;10.542;2023-05-10T11:06:32;1.80;;;1.13;;
64959;SDS011;51487;52.266;10.542;2023-05-10T11:09:09;3.03;;;1.50;;
64959;SDS011;51487;52.266;10.542;2023-05-10T11:11:52;1.50;;;1.40;;
64959;SDS011;51487;52.266;10.542;2023-05-10T11:14:23;6.07;;;1.77;;
64959;SDS011;51487;52.266;10.542;2023-05-10T11:16:50;4.18;;;1.77;;
64959;SDS011;51487;52.266;10.542;2023-05-10T11:19:17;1.70;;;1.20;;
64959;SDS011;51487;52.266;10.542;2023-05-10T11:21:47;3.45;;;1.30;;
64959;SDS011;51487;52.266;10.542;2023-05-10T11:24:19;2.38;;;1.30;;
64959;SDS011;51487;52.266;10.542;2023-05-10T11:26:53;4.55;;;1.50;;
64959;SDS011;51487;52.266;10.542;2023-05-10T11:29:19;3.05;;;1.40;;
64959;SDS011;51487;52.266;10.542;2023-05-10T11:31:45;4.50;;;1.67;;
64959;SDS011;51487;52.266;10.542;2023-05-10T11:34:22;5.57;;;1.67;;
64959;SDS011;51487;52.266;10.542;2023-05-10T11:36:53;2.08;;;1.60;;
64959;SDS011;51487;52.266;10.542;2023-05-10T11:39:21;1.50;;;1.40;;
64959;SDS011;51487;52.266;10.542;2023-05-10T11:41:51;2.42;;;1.30;;
64959;SDS011;51487;52.266;10.542;2023-05-10T11:44:16;1.92;;;1.50;;
64959;SDS011;51487;52.266;10.542;2023-05-10T11:46:42;1.67;;;1.42;;
64959;SDS011;51487;52.266;10.542;2023-05-10T11:49:08;1.35;;;1.25;;
64959;SDS011;51487;52.266;10.542;2023-05-10T11:51:36;2.45;;;1.35;;
64959;SDS011;51487;52.266;10.542;2023-05-10T11:54:06;2.80;;;1.30;;
64959;SDS011;51487;52.266;10.542;2023-05-10T11:56:34;5.43;;;1.65;;
64959;SDS011;51487;52.266;10.542;2023-05-10T11:59:00;3.75;;;1.60;;
64959;SDS011;51487;52.266;10.542;2023-05-10T12:01:27;1.33;;;1.20;;
64959;SDS011;51487;52.266;10.542;2023-05-10T12:03:54;3.70;;;1.88;;
64959;SDS011;51487;52.266;10.542;2023-05-10T12:06:26;2.60;;;1.20;;
64959;SDS011;51487;52.266;10.542;2023-05-10T12:08:55;2.58;;;1.30;;
64959;SDS011;51487;52.266;10.542;2023-05-10T12:11:24;1.42;;;1.17;;
64959;SDS011;51487;52.266;10.542;2023-05-10T12:13:52;4.93;;;1.70;;
64959;SDS011;51487;52.266;10.542;2023-05-10T12:16:19;1.52;;;1.15;;
64959;SDS011;51487;52.266;10.542;2023-05-10T12:18:48;2.50;;;1.23;;
64959;SDS011;51487;52.266;10.542;2023-05-10T12:21:18;1.77;;;1.35;;
64959;SDS011;51487;52.266;10.542;2023-05-10T12:23:46;1.52;;;1.30;;
64959;SDS011;51487;52.266;10.542;2023-05-10T12:26:17;2.37;;;1.30;;
64959;SDS011;51487;52.266;10.542;2023-05-10T12:28:46;1.35;;;1.20;;
64959;SDS011;51487;52.266;10.542;2023-05-10T12:31:11;2.22;;;1.10;;
64959;SDS011;51487;52.266;10.542;2023-05-10T12:33:38;7.93;;;1.70;;
64959;SDS011;51487;52.266;10.542;2023-05-10T12:36:12;1.38;;;1.23;;
64959;SDS011;51487;52.266;10.542;2023-05-10T12:38:43;2.15;;;1.20;;
64959;SDS011;51487;52.266;10.542;2023-05-10T12:41:16;2.58;;;1.50;;
64959;SDS011;51487;52.266;10.542;2023-05-10T12:43:43;3.72;;;1.33;;
64959;SDS011;51487;52.266;10.542;2023-05-10T12:46:11;1.50;;;1.40;;
64959;SDS011;51487;52.266;10.542;2023-05-10T12:48:39;3.97;;;1.30;;
64959;SDS011;51487;52.266;10.542;2023-05-10T12:51:06;4.43;;;1.20;;
64959;SDS011;51487;52.266;10.542;2023-05-10T12:53:34;2.03;;;1.20;;
64959;SDS011;51487;52.266;10.542;2023-05-10T12:56:01;1.95;;;1.15;;
64959;SDS011;51487;52.266;10.542;2023-05-10T12:58:26;2.80;;;1.25;;
64959;SDS011;51487;52.266;10.542;2023-05-10T13:00:52;1.50;;;1.23;;
64959;SDS011;51487;52.266;10.542;2023-05-10T13:03:18;1.77;;;1.40;;
64959;SDS011;51487;52.266;10.542;2023-05-10T13:05:44;1.70;;;1.23;;
64959;SDS011;51487;52.266;10.542;2023-05-10T13:08:10;2.65;;;1.45;;
64959;SDS011;51487;52.266;10.542;2023-05-10T13:10:35;15.65;;;10.75;;
64959;SDS011;51487;52.266;10.542;2023-05-10T13:13:01;3.13;;;1.40;;
64959;SDS011;51487;52.266;10.542;2023-05-10T13:15:27;1.85;;;1.38;;
64959;SDS011;51487;52.266;10.542;2023-05-10T13:17:53;2.15;;;1.30;;
64959;SDS011;51487;52.266;10.542;2023-05-10T13:20:19;1.77;;;1.00;;
64959;SDS011;51487;52.266;10.542;2023-05-10T13:22:45;1.88;;;1.17;;
64959;SDS011;51487;52.266;10.542;2023-05-10T13:25:11;1.67;;;1.20;;
64959;SDS011;51487;52.266;10.542;2023-05-10T13:27:38;1.35;;;1.10;;
64959;SDS011;51487;52.266;10.542;2023-05-10T13:30:05;2.85;;;1.30;;
64959;SDS011;51487;52.266;10.542;2023-05-10T13:32:33;2.15;;;1.35;;
64959;SDS011;51487;52.266;10.542;2023-05-10T13:34:58;2.28;;;1.40;;
64959;SDS011;51487;52.266;10.542;2023-05-10T13:37:24;1.83;;;1.20;;
64959;SDS011;51487;52.266;10.542;2023-05-10T13:39:49;2.10;;;1.30;;
64959;SDS011;51487;52.266;10.542;2023-05-10T13:42:15;2.42;;;1.70;;
64959;SDS011;51487;52.266;10.542;2023-05-10T13:44:42;2.67;;;1.30;;
64959;SDS011;51487;52.266;10.542;2023-05-10T13:47:08;3.63;;;1.33;;
64959;SDS011;51487;52.266;10.542;2023-05-10T13:49:34;2.13;;;1.20;;
64959;SDS011;51487;52.266;10.542;2023-05-10T13:51:59;5.05;;;1.60;;
64959;SDS011;51487;52.266;10.542;2023-05-10T13:54:31;2.60;;;1.30;;
64959;SDS011;51487;52.266;10.542;2023-05-10T13:57:03;6.35;;;2.00;;
64959;SDS011;51487;52.266;10.542;2023-05-10T13:59:29;2.42;;;1.20;;
64959;SDS011;51487;52.266;10.542;2023-05-10T14:01:59;3.05;;;1.63;;
64959;SDS011;51487;52.266;10.542;2023-05-10T14:04:29;4.43;;;1.35;;
64959;SDS011;51487;52.266;10.542;2023-05-10T14:06:55;2.13;;;1.48;;
64959;SDS011;51487;52.266;10.542;2023-05-10T14:09:21;2.35;;;1.60;;
64959;SDS011;51487;52.266;10.542;2023-05-10T14:11:47;5.47;;;1.50;;
64959;SDS011;51487;52.266;10.542;2023-05-10T14:14:13;5.05;;;1.70;;
64959;SDS011;51487;52.266;10.542;2023-05-10T14:16:41;1.83;;;1.10;;
64959;SDS011;51487;52.266;10.542;2023-05-10T14:19:08;2.20;;;1.27;;
64959;SDS011;51487;52.266;10.542;2023-05-10T14:21:34;2.22;;;1.38;;
64959;SDS011;51487;52.266;10.542;2023-05-10T14:23:59;1.95;;;1.35;;
64959;SDS011;51487;52.266;10.542;2023-05-10T14:26:25;4.65;;;2.63;;
64959;SDS011;51487;52.266;10.542;2023-05-10T14:28:52;3.95;;;2.17;;
64959;SDS011;51487;52.266;10.542;2023-05-10T14:31:18;11.15;;;2.42;;
64959;SDS011;51487;52.266;10.542;2023-05-10T14:33:45;7.72;;;1.35;;
64959;SDS011;51487;52.266;10.542;2023-05-10T14:36:12;1.50;;;1.13;;
64959;SDS011;51487;52.266;10.542;2023-05-10T14:38:38;1.75;;;1.10;;
64959;SDS011;51487;52.266;10.542;2023-05-10T14:41:04;2.85;;;1.70;;
64959;SDS011;51487;52.266;10.542;2023-05-10T14:43:30;5.63;;;2.03;;
64959;SDS011;51487;52.266;10.542;2023-05-10T14:45:55;3.47;;;1.27;;
64959;SDS011;51487;52.266;10.542;2023-05-10T14:48:21;3.75;;;1.42;;
64959;SDS011;51487;52.266;10.542;2023-05-10T14:50:46;5.05;;;1.80;;
64959;SDS011;51487;52.266;10.542;2023-05-10T14:53:12;7.35;;;1.50;;
64959;SDS011;51487;52.266;10.542;2023-05-10T14:55:38;3.00;;;1.63;;
64959;SDS011;51487;52.266;10.542;2023-05-10T14:58:04;2.05;;;1.20;;
64959;SDS011;51487;52.266;10.542;2023-05-10T15:00:30;2.55;;;1.60;;
64959;SDS011;51487;52.266;10.542;2023-05-10T15:02:56;4.13;;;1.60;;
64959;SDS011;51487;52.266;10.542;2023-05-10T15:05:22;3.25;;;1.20;;
64959;SDS011;51487;52.266;10.542;2023-05-10T15:07:48;3.00;;;1.20;;
64959;SDS011;51487;52.266;10.542;2023-05-10T15:10:14;3.53;;;1.30;;
64959;SDS011;51487;52.266;10.542;2023-05-10T15:12:40;1.90;;;1.15;;
64959;SDS011;51487;52.266;10.542;2023-05-10T15:15:05;1.98;;;1.15;;
64959;SDS011;51487;52.266;10.542;2023-05-10T15:17:32;1.85;;;1.10;;
64959;SDS011;51487;52.266;10.542;2023-05-10T15:19:58;3.65;;;1.30;;